Hauptseite
METAR-TAF:

METAR-TAF

Flughäfen :

Flughafen Singapur-Seletar

Singapur, Singapur

Breite: 01-25-08N, Länge: 103-51-57E, Höhe: 11 m

Beobachtung

Neuester Wetterbericht von vor 27 Minuten, um 18:00 UTC
Wind 1 kt aus unterschiedlichen Richtungen
Temperatur 26°C
Luftfeuchtigkeit 94%
Luftdruck 1008 hPa
Sichtweite 10 km oder mehr
Leicht bewölkt in der Höhe von 1600 ft
Durchbrochene Bewölkung in der Höhe von 30000 ft

METAR: WSSL 231800Z VRB01KT 9999 FEW016 BKN300 26/25 Q1008

Zeit: 02:27 (18:27 UTC)

Prognose

Neuester Wetterbericht von vor 1 Stunde und 27 Minuten, um 17:00 UTC
Gültige Prognose vom 23 um 18 UTC bis 25 um 00 UTC
Wind 10 kt aus Süd
Sichtweite 10 km oder mehr
Leicht bewölkt in der Höhe von 1500 ft
Aufgelockert bewölkt in der Höhe von 2000 ft

TAF: WSSL 231700Z 2318/2500 17010KT 9999 FEW015 SCT020

Wetterbeobachtungen und Prognosen von mehr als 4000 Flughäfen (METAR und TAF Bericht).

Die verfügbaren Stationen werden durch gelbe und rote Markierungen auf der Karte dargestellt.

Führen Sie die Maus auf sie, um den Namen der Station zu sehen.

Darauf klicken, um die Beobachtung von Wetterbeobachtungen und Prognosen zu sehen.

Um die Karte zu ändern : klicken Sie auf den grünen Tasten mit einem schwarzen Kreuz Zum Vergrößern, auf den grünen Button mit einem Gedankenstrich zu verkleinern, oder auf die grünen Pfeile für benachbarte Karten.


METAR-TAF: